Time;durP1;ratioP1;P1;durP2;ratioP2;P2;SDS_P1;SDS_P2;PMS_P1;PMS_P2;Temp;Humidity;BMP_temperature;BMP_pressure;BME280_temperature;BME280_humidity;BME280_pressure;Samples;Min_cycle;Max_cycle;Signal;HPM_P1;HPM_P2
2022/10/22 00:01:14;;;;;;;1.37;0.80;;;13.50;99.90;;;;;;6132744;23;20979;-83
2022/10/22 00:03:41;;;;;;;1.23;1.03;;;13.50;99.90;;;;;;6133039;23;20430;-85
2022/10/22 00:06:08;;;;;;;0.70;0.63;;;13.50;99.90;;;;;;6133756;23;20439;-86
2022/10/22 00:08:36;;;;;;;0.83;0.83;;;13.50;99.90;;;;;;6133223;23;20417;-83
2022/10/22 00:11:10;;;;;;;0.87;0.80;;;13.50;99.90;;;;;;6134212;23;20445;-85
2022/10/22 00:13:38;;;;;;;0.90;0.70;;;13.60;99.90;;;;;;6131998;23;20419;-82
2022/10/22 00:16:05;;;;;;;1.17;1.07;;;13.50;99.90;;;;;;6134417;23;20938;-85
2022/10/22 00:18:32;;;;;;;0.50;0.50;;;13.60;99.90;;;;;;6134008;23;20444;-85
2022/10/22 00:20:58;;;;;;;0.87;0.87;;;13.60;99.90;;;;;;6132632;23;20434;-85
2022/10/22 00:23:25;;;;;;;0.60;0.60;;;13.60;99.90;;;;;;6132094;23;20419;-85
2022/10/22 00:25:53;;;;;;;0.67;0.67;;;13.50;99.90;;;;;;6132007;23;20413;-85
2022/10/22 00:28:21;;;;;;;1.00;0.80;;;13.50;99.90;;;;;;6130836;23;20903;-84
2022/10/22 00:30:50;;;;;;;0.87;0.87;;;13.40;99.90;;;;;;6149023;23;20446;-85
2022/10/22 00:33:17;;;;;;;0.77;0.77;;;13.40;99.90;;;;;;6161451;23;20452;-85
2022/10/22 00:35:45;;;;;;;1.23;0.80;;;13.20;99.90;;;;;;6160247;23;20446;-85
2022/10/22 00:38:12;;;;;;;1.57;0.77;;;13.30;99.90;;;;;;6159644;23;20426;-85
2022/10/22 00:40:40;;;;;;;1.00;0.97;;;13.30;99.90;;;;;;6161224;23;20462;-85
2022/10/22 00:43:10;;;;;;;3.40;1.20;;;13.20;99.90;;;;;;6160983;23;20993;-85
2022/10/22 00:45:39;;;;;;;1.73;0.90;;;13.30;99.90;;;;;;6161245;23;20445;-84
2022/10/22 00:48:08;;;;;;;0.80;0.80;;;13.30;99.90;;;;;;6162548;23;20433;-84
2022/10/22 00:50:39;;;;;;;0.73;0.73;;;13.30;99.90;;;;;;6161132;23;20434;-85
2022/10/22 00:53:16;;;;;;;2.83;0.97;;;13.30;99.90;;;;;;6160825;23;20403;-85
2022/10/22 00:55:45;;;;;;;1.63;0.60;;;13.20;99.90;;;;;;6159566;23;20453;-85
2022/10/22 00:58:14;;;;;;;1.27;1.10;;;13.10;99.90;;;;;;6160295;23;20415;-84
2022/10/22 01:00:45;;;;;;;2.43;1.10;;;13.10;99.90;;;;;;6159118;23;20441;-85
2022/10/22 01:03:11;;;;;;;0.97;0.90;;;13.00;99.90;;;;;;6158955;23;20405;-84
2022/10/22 01:05:44;;;;;;;1.10;0.90;;;13.10;99.90;;;;;;6159974;23;20413;-85
2022/10/22 01:08:32;;;;;;;0.63;0.63;;;13.20;99.90;;;;;;6158503;23;20422;-83
2022/10/22 01:11:16;;;;;;;1.80;1.03;;;13.20;99.90;;;;;;6160136;23;20433;-82
2022/10/22 01:13:53;;;;;;;1.13;1.00;;;13.10;99.90;;;;;;6160188;23;20418;-82
2022/10/22 01:16:27;;;;;;;0.93;0.90;;;13.20;99.90;;;;;;6162219;23;20433;-82
2022/10/22 01:19:02;;;;;;;2.90;1.17;;;13.10;99.90;;;;;;6160432;23;20394;-83
2022/10/22 01:21:34;;;;;;;2.67;1.20;;;13.10;99.90;;;;;;6162033;23;20441;-83
2022/10/22 01:24:36;;;;;;;0.80;0.77;;;13.20;99.90;;;;;;6170325;23;20438;-83
2022/10/22 01:27:15;;;;;;;1.53;0.77;;;13.10;99.90;;;;;;6170865;23;20422;-84
2022/10/22 01:30:05;;;;;;;2.20;1.50;;;13.20;99.90;;;;;;6169272;23;20445;-84
2022/10/22 01:32:40;;;;;;;0.90;0.90;;;13.20;99.90;;;;;;6169838;23;20402;-84
2022/10/22 01:35:11;;;;;;;0.70;0.70;;;13.20;99.90;;;;;;6169207;23;20430;-84
2022/10/22 01:37:42;;;;;;;0.60;0.50;;;13.20;99.90;;;;;;6168928;23;20398;-84
2022/10/22 01:40:11;;;;;;;1.13;1.13;;;13.10;99.90;;;;;;6168759;23;20430;-84
2022/10/22 01:42:39;;;;;;;1.07;0.97;;;13.10;99.90;;;;;;6168372;23;20425;-84
2022/10/22 01:45:13;;;;;;;2.30;1.07;;;13.20;99.90;;;;;;6168029;23;20434;-84
2022/10/22 01:48:07;;;;;;;1.10;1.10;;;13.20;99.90;;;;;;6168358;23;20402;-85
2022/10/22 01:50:53;;;;;;;2.20;1.30;;;13.30;99.90;;;;;;6167298;23;20438;-84
2022/10/22 01:53:30;;;;;;;1.20;1.10;;;13.30;99.90;;;;;;6168735;23;20477;-84
2022/10/22 01:56:15;;;;;;;2.67;1.33;;;13.30;99.90;;;;;;6169302;23;20933;-84
2022/10/22 01:58:52;;;;;;;3.07;2.23;;;13.30;99.90;;;;;;6168116;23;20398;-84
2022/10/22 02:01:28;;;;;;;1.33;0.87;;;13.40;99.90;;;;;;6169451;23;20438;-84
2022/10/22 02:04:01;;;;;;;1.33;0.90;;;13.30;99.90;;;;;;6168579;23;20462;-85
2022/10/22 02:06:35;;;;;;;0.93;0.93;;;13.20;99.90;;;;;;6169051;23;20485;-85
2022/10/22 02:09:07;;;;;;;1.17;0.60;;;13.20;99.90;;;;;;6168795;23;20894;-85
2022/10/22 02:11:40;;;;;;;0.90;0.90;;;13.20;99.90;;;;;;6169417;23;20465;-85
2022/10/22 02:14:18;;;;;;;1.07;0.90;;;13.30;99.90;;;;;;6168738;23;20426;-85
2022/10/22 02:16:53;;;;;;;0.70;0.70;;;13.40;99.90;;;;;;6169045;23;20431;-84
2022/10/22 02:22:25;;;;;;;1.70;1.20;;;13.30;99.90;;;;;;6165543;23;20470;-85
2022/10/22 02:24:53;;;;;;;2.50;0.80;;;13.30;99.90;;;;;;6163286;23;20546;-84
2022/10/22 02:27:30;;;;;;;0.70;0.70;;;13.30;99.90;;;;;;6157735;23;20402;-85
2022/10/22 02:30:02;;;;;;;2.70;1.00;;;13.30;99.90;;;;;;6158387;23;20433;-83
2022/10/22 02:32:36;;;;;;;1.00;1.00;;;13.30;99.90;;;;;;6158239;23;20391;-84
2022/10/22 02:35:04;;;;;;;1.03;0.67;;;13.30;99.90;;;;;;6158160;23;20398;-84
2022/10/22 02:37:32;;;;;;;0.70;0.70;;;13.30;99.90;;;;;;6157636;23;20753;-84
2022/10/22 02:39:59;;;;;;;1.23;0.90;;;13.20;99.90;;;;;;6157249;23;20435;-84
2022/10/22 02:42:28;;;;;;;1.17;0.70;;;13.10;99.90;;;;;;6158332;23;20919;-85
2022/10/22 02:44:54;;;;;;;1.70;0.70;;;13.00;99.90;;;;;;6158938;23;20414;-84
2022/10/22 02:47:21;;;;;;;1.40;1.30;;;13.00;99.90;;;;;;6158535;23;20433;-83
2022/10/22 02:49:49;;;;;;;1.03;0.93;;;13.00;99.90;;;;;;6158636;23;20427;-84
2022/10/22 02:52:16;;;;;;;0.90;0.70;;;13.00;99.90;;;;;;6159452;23;20421;-84
2022/10/22 02:54:44;;;;;;;3.23;1.17;;;12.90;99.90;;;;;;6160269;23;20410;-84
2022/10/22 02:57:11;;;;;;;0.80;0.80;;;13.00;99.90;;;;;;6159283;23;20446;-85
2022/10/22 02:59:38;;;;;;;1.00;1.00;;;12.90;99.90;;;;;;6159110;23;20436;-83
2022/10/22 03:02:05;;;;;;;1.60;1.50;;;13.00;99.90;;;;;;6160083;23;20421;-83
2022/10/22 03:04:31;;;;;;;1.50;1.00;;;12.90;99.90;;;;;;6160082;23;20419;-84
2022/10/22 03:07:00;;;;;;;0.80;0.70;;;12.90;99.90;;;;;;6160496;23;20415;-84
2022/10/22 03:09:26;;;;;;;0.77;0.77;;;13.00;99.90;;;;;;6159646;23;20914;-83
2022/10/22 03:11:53;;;;;;;5.50;0.93;;;13.00;99.90;;;;;;6160207;23;20501;-83
2022/10/22 03:14:20;;;;;;;0.63;0.63;;;13.00;99.90;;;;;;6160366;23;20415;-83
2022/10/22 03:16:47;;;;;;;0.77;0.77;;;13.00;99.90;;;;;;6159231;23;20453;-84
2022/10/22 03:19:14;;;;;;;0.60;0.60;;;13.00;99.90;;;;;;6159517;23;20414;-84
2022/10/22 03:21:43;;;;;;;1.33;0.93;;;13.10;99.90;;;;;;6160754;23;20473;-83
2022/10/22 03:24:15;;;;;;;0.90;0.83;;;13.20;99.90;;;;;;6160763;23;20498;-83
2022/10/22 03:26:43;;;;;;;0.67;0.67;;;13.20;99.90;;;;;;6160554;23;20481;-84
2022/10/22 03:29:12;;;;;;;1.00;0.80;;;13.30;99.90;;;;;;6158824;23;20482;-84
2022/10/22 03:31:43;;;;;;;1.17;1.07;;;13.20;99.90;;;;;;6159693;23;20844;-84
2022/10/22 03:34:10;;;;;;;1.60;1.00;;;13.20;99.90;;;;;;6158190;23;20423;-84
2022/10/22 03:36:37;;;;;;;1.07;1.03;;;13.30;99.90;;;;;;6157726;23;20834;-84
2022/10/22 03:39:10;;;;;;;1.23;1.20;;;13.30;99.90;;;;;;6159870;23;20414;-83
2022/10/22 03:41:57;;;;;;;0.80;0.80;;;13.40;99.90;;;;;;6158070;23;20517;-83
2022/10/22 03:44:29;;;;;;;0.73;0.73;;;13.30;99.90;;;;;;6159023;23;20482;-83
2022/10/22 03:46:59;;;;;;;1.83;0.87;;;13.30;99.90;;;;;;6158564;23;20714;-84
2022/10/22 03:49:30;;;;;;;1.00;1.00;;;13.30;99.90;;;;;;6158015;23;20757;-83
2022/10/22 03:51:57;;;;;;;3.17;0.93;;;13.30;99.90;;;;;;6159069;23;20535;-84
2022/10/22 03:54:23;;;;;;;0.97;0.97;;;13.20;99.90;;;;;;6159401;23;20421;-83
2022/10/22 03:56:52;;;;;;;1.47;1.10;;;13.30;99.90;;;;;;6159902;23;20448;-84
2022/10/22 03:59:23;;;;;;;1.10;0.80;;;13.20;99.90;;;;;;6159716;23;20909;-84
2022/10/22 04:01:53;;;;;;;0.73;0.60;;;13.20;99.90;;;;;;6161145;23;20913;-83
2022/10/22 04:04:20;;;;;;;1.27;1.17;;;13.20;99.90;;;;;;6162482;23;20442;-83
2022/10/22 04:07:00;;;;;;;1.00;1.00;;;13.20;99.90;;;;;;6161494;23;20416;-84
2022/10/22 04:09:27;;;;;;;0.90;0.90;;;13.20;99.90;;;;;;6160450;23;20456;-84
2022/10/22 04:11:58;;;;;;;4.90;1.17;;;13.10;99.90;;;;;;6161026;23;20413;-83
2022/10/22 04:14:29;;;;;;;1.00;0.93;;;13.00;99.90;;;;;;6161343;23;20402;-84
2022/10/22 04:16:56;;;;;;;1.33;1.17;;;13.00;99.90;;;;;;6162023;23;20741;-83
2022/10/22 04:19:23;;;;;;;0.93;0.90;;;13.00;99.90;;;;;;6160120;23;20407;-83
2022/10/22 04:21:50;;;;;;;0.80;0.80;;;12.90;99.90;;;;;;6161240;23;20432;-84
2022/10/22 04:24:16;;;;;;;1.17;1.07;;;12.80;99.90;;;;;;6161079;23;20477;-83
2022/10/22 04:26:43;;;;;;;0.60;0.60;;;12.90;99.90;;;;;;6160180;23;20420;-85
2022/10/22 04:29:11;;;;;;;1.43;0.90;;;12.80;99.90;;;;;;6171445;23;20924;-84
2022/10/22 04:31:38;;;;;;;0.73;0.67;;;12.70;99.90;;;;;;6175489;23;20528;-84
2022/10/22 04:34:05;;;;;;;1.00;1.00;;;12.70;99.90;;;;;;6174220;23;20989;-85
2022/10/22 04:36:32;;;;;;;1.17;1.13;;;12.70;99.90;;;;;;6170435;23;20449;-85
2022/10/22 04:39:01;;;;;;;1.73;1.43;;;12.60;99.90;;;;;;6170171;23;20424;-85
2022/10/22 04:41:32;;;;;;;1.27;1.17;;;12.70;99.90;;;;;;6170449;23;20438;-84
2022/10/22 04:44:00;;;;;;;1.00;1.00;;;12.70;99.90;;;;;;6170925;23;20417;-85
2022/10/22 04:46:30;;;;;;;1.10;1.00;;;12.50;99.90;;;;;;6170704;23;20413;-84
2022/10/22 04:48:57;;;;;;;0.80;0.80;;;12.50;99.90;;;;;;6170943;23;20424;-85
2022/10/22 04:51:26;;;;;;;0.67;0.67;;;12.50;99.90;;;;;;6170106;23;20453;-85
2022/10/22 04:53:53;;;;;;;2.30;0.80;;;12.60;99.90;;;;;;6170334;23;20433;-84
2022/10/22 04:56:23;;;;;;;1.53;1.23;;;12.60;99.90;;;;;;6170107;23;20449;-84
2022/10/22 04:58:52;;;;;;;1.30;1.27;;;12.60;99.90;;;;;;6169967;23;20722;-85
2022/10/22 05:01:20;;;;;;;0.93;0.83;;;12.60;99.90;;;;;;6169553;23;20489;-85
2022/10/22 05:03:50;;;;;;;0.70;0.70;;;12.60;99.90;;;;;;6170577;23;20414;-85
2022/10/22 05:06:19;;;;;;;1.10;1.10;;;12.60;99.90;;;;;;6170351;23;20410;-85
2022/10/22 05:08:46;;;;;;;1.07;0.60;;;12.60;99.90;;;;;;6170415;23;20414;-85
2022/10/22 05:11:16;;;;;;;1.80;0.83;;;12.60;99.90;;;;;;6169990;23;20437;-84
2022/10/22 05:13:42;;;;;;;5.60;1.07;;;12.60;99.90;;;;;;6170157;23;20421;-84
2022/10/22 05:16:11;;;;;;;1.67;1.10;;;12.50;99.90;;;;;;6169159;23;20550;-85
2022/10/22 05:18:40;;;;;;;0.70;0.70;;;12.50;99.90;;;;;;6170522;23;20493;-84
2022/10/22 05:21:11;;;;;;;0.80;0.80;;;12.60;99.90;;;;;;6170045;23;20435;-85
2022/10/22 05:23:38;;;;;;;1.00;1.00;;;12.50;99.90;;;;;;6170042;23;20395;-84
2022/10/22 05:26:05;;;;;;;1.87;1.00;;;12.50;99.90;;;;;;6170367;23;20784;-85
2022/10/22 05:28:34;;;;;;;1.17;1.07;;;12.50;99.90;;;;;;6169778;23;20470;-84
2022/10/22 05:31:01;;;;;;;1.23;0.97;;;12.40;99.90;;;;;;6150394;23;20469;-84
2022/10/22 05:33:29;;;;;;;0.70;0.70;;;12.50;99.90;;;;;;6139488;23;20417;-82
2022/10/22 05:35:56;;;;;;;1.27;1.13;;;12.50;99.90;;;;;;6139014;23;20407;-84
2022/10/22 05:38:24;;;;;;;3.47;1.20;;;12.60;99.90;;;;;;6139302;23;20506;-85
2022/10/22 05:41:02;;;;;;;0.90;0.90;;;12.60;99.90;;;;;;6154269;23;20522;-85
2022/10/22 05:43:29;;;;;;;0.93;0.93;;;12.60;99.90;;;;;;6167902;23;20424;-84
2022/10/22 05:46:00;;;;;;;0.80;0.80;;;12.50;99.90;;;;;;6168650;23;20410;-84
2022/10/22 05:48:27;;;;;;;2.73;1.20;;;12.40;99.90;;;;;;6168298;23;20395;-84
2022/10/22 05:50:54;;;;;;;3.60;1.00;;;12.50;99.90;;;;;;6168475;23;20441;-84
2022/10/22 05:53:21;;;;;;;1.00;0.80;;;12.60;99.90;;;;;;6168706;23;20422;-84
2022/10/22 05:55:49;;;;;;;2.83;1.10;;;12.50;99.90;;;;;;6168643;23;20474;-85
2022/10/22 05:58:16;;;;;;;1.07;0.90;;;12.50;99.90;;;;;;6168283;23;20450;-85
2022/10/22 06:00:43;;;;;;;4.30;2.03;;;12.60;99.90;;;;;;6168389;23;20440;-84
2022/10/22 06:03:09;;;;;;;1.00;0.80;;;12.60;99.90;;;;;;6170462;23;20417;-85
2022/10/22 06:05:37;;;;;;;0.90;0.90;;;12.60;99.90;;;;;;6170912;23;20410;-85
2022/10/22 06:08:05;;;;;;;4.90;1.30;;;12.60;99.90;;;;;;6170038;23;20413;-85
2022/10/22 06:10:31;;;;;;;0.73;0.73;;;12.70;99.90;;;;;;6171270;23;20434;-85
2022/10/22 06:13:02;;;;;;;1.03;1.03;;;12.80;99.90;;;;;;6171328;23;20417;-86
2022/10/22 06:15:28;;;;;;;0.93;0.80;;;12.90;99.90;;;;;;6170826;23;20410;-85
2022/10/22 06:17:55;;;;;;;0.60;0.60;;;12.90;99.90;;;;;;6170215;23;20449;-84
2022/10/22 06:20:22;;;;;;;0.70;0.70;;;12.90;99.90;;;;;;6171328;23;20437;-85
2022/10/22 06:22:49;;;;;;;1.43;1.30;;;12.90;99.90;;;;;;6170971;23;20492;-85
2022/10/22 06:25:16;;;;;;;0.80;0.80;;;12.80;99.90;;;;;;6176318;23;20443;-85
2022/10/22 06:27:42;;;;;;;0.60;0.60;;;12.90;99.90;;;;;;6175573;23;20445;-84
2022/10/22 06:30:11;;;;;;;1.53;1.30;;;13.10;99.90;;;;;;6174744;23;20489;-84
2022/10/22 06:32:38;;;;;;;0.80;0.80;;;13.10;99.90;;;;;;6170258;23;20485;-85
2022/10/22 06:35:06;;;;;;;1.43;0.67;;;13.20;99.90;;;;;;6170735;23;20473;-85
2022/10/22 06:37:32;;;;;;;3.00;0.87;;;13.20;99.90;;;;;;6170769;23;20521;-85
2022/10/22 06:39:59;;;;;;;1.90;0.90;;;13.20;99.90;;;;;;6170800;23;21012;-85
2022/10/22 06:42:27;;;;;;;4.10;1.20;;;13.10;99.90;;;;;;6170084;23;20426;-85
2022/10/22 06:44:54;;;;;;;1.00;1.00;;;13.20;99.90;;;;;;6170099;23;20561;-85
2022/10/22 06:47:22;;;;;;;1.13;1.00;;;13.20;99.90;;;;;;6170242;23;20411;-84
2022/10/22 06:49:49;;;;;;;1.13;0.97;;;13.30;99.90;;;;;;6170195;23;20417;-84
2022/10/22 06:52:16;;;;;;;4.07;1.43;;;13.40;99.90;;;;;;6170215;23;20482;-84
2022/10/22 06:54:42;;;;;;;1.80;0.77;;;13.50;99.90;;;;;;6170251;23;20815;-85
2022/10/22 06:57:09;;;;;;;0.87;0.87;;;13.60;99.90;;;;;;6169170;23;20452;-85
2022/10/22 06:59:36;;;;;;;1.30;1.17;;;13.60;99.90;;;;;;6170270;23;20486;-84
2022/10/22 07:02:03;;;;;;;1.77;1.17;;;13.60;99.90;;;;;;6170007;23;20420;-84
2022/10/22 07:04:31;;;;;;;1.40;0.93;;;13.60;99.90;;;;;;6170354;23;20505;-84
2022/10/22 07:06:58;;;;;;;1.17;0.93;;;13.60;99.90;;;;;;6169316;23;20417;-84
2022/10/22 07:09:25;;;;;;;1.10;1.10;;;13.70;99.90;;;;;;6169031;23;20417;-84
2022/10/22 07:11:51;;;;;;;1.00;1.00;;;13.80;99.90;;;;;;6170023;23;20459;-84
2022/10/22 07:14:18;;;;;;;0.87;0.87;;;13.90;99.90;;;;;;6170270;23;20407;-85
2022/10/22 07:16:45;;;;;;;0.90;0.90;;;14.00;99.90;;;;;;6168140;23;20447;-84
2022/10/22 07:19:13;;;;;;;2.13;1.00;;;14.00;99.90;;;;;;6168234;23;20414;-85
2022/10/22 07:21:41;;;;;;;1.00;0.90;;;14.10;99.90;;;;;;6170612;23;20458;-84
2022/10/22 07:24:08;;;;;;;2.43;0.90;;;14.10;99.90;;;;;;6169638;23;20445;-85
2022/10/22 07:26:35;;;;;;;1.30;1.20;;;14.30;99.90;;;;;;6169926;23;20422;-85
2022/10/22 07:29:03;;;;;;;1.00;1.00;;;14.30;99.90;;;;;;6169880;23;20515;-86
2022/10/22 07:31:30;;;;;;;2.03;1.20;;;14.30;99.90;;;;;;6169693;23;20448;-85
2022/10/22 07:33:58;;;;;;;1.13;1.03;;;14.30;99.90;;;;;;6168686;23;20407;-85
2022/10/22 07:36:24;;;;;;;0.63;0.63;;;14.40;99.90;;;;;;6168962;23;20978;-86
2022/10/22 07:38:56;;;;;;;0.63;0.63;;;14.40;99.90;;;;;;6169097;23;20453;-85
2022/10/22 07:41:24;;;;;;;0.80;0.80;;;14.40;99.90;;;;;;6168560;23;20425;-85
2022/10/22 07:47:28;;;;;;;0.83;0.50;;;14.40;99.90;;;;;;6154248;23;20373;-87
2022/10/22 07:49:55;;;;;;;0.60;0.60;;;14.50;99.90;;;;;;6158421;23;20430;-83
2022/10/22 07:52:21;;;;;;;1.20;1.20;;;14.50;99.90;;;;;;6158396;23;20417;-84
2022/10/22 07:54:49;;;;;;;1.30;1.20;;;14.40;99.90;;;;;;6159494;23;20397;-85
2022/10/22 07:57:16;;;;;;;2.50;2.30;;;14.40;99.90;;;;;;6157796;23;20453;-84
2022/10/22 07:59:43;;;;;;;1.50;1.40;;;14.40;99.90;;;;;;6157636;23;20421;-84
2022/10/22 08:02:11;;;;;;;2.43;0.90;;;14.50;99.90;;;;;;6155734;23;20506;-85
2022/10/22 08:04:38;;;;;;;0.90;0.90;;;14.40;99.90;;;;;;6153863;23;20417;-84
2022/10/22 08:07:04;;;;;;;0.90;0.90;;;14.60;99.90;;;;;;6153411;23;20413;-84
2022/10/22 08:09:31;;;;;;;0.80;0.80;;;14.70;99.90;;;;;;6153802;23;20478;-84
2022/10/22 08:12:00;;;;;;;1.13;1.03;;;14.80;99.90;;;;;;6158657;23;20435;-84
2022/10/22 08:14:26;;;;;;;1.17;1.10;;;14.80;99.90;;;;;;6155624;23;20494;-84
2022/10/22 08:16:53;;;;;;;1.67;1.23;;;14.80;99.90;;;;;;6155493;23;20464;-84
2022/10/22 08:19:20;;;;;;;0.90;0.90;;;14.80;99.90;;;;;;6157856;23;20492;-84
2022/10/22 08:21:47;;;;;;;0.80;0.80;;;14.80;99.90;;;;;;6156590;23;20423;-84
2022/10/22 08:24:14;;;;;;;1.33;1.27;;;14.80;99.90;;;;;;6156597;23;20922;-84
2022/10/22 08:26:41;;;;;;;2.83;1.17;;;14.80;99.90;;;;;;6147217;23;20417;-82
2022/10/22 08:38:48;;;;;;;1.20;1.03;;;14.90;99.90;;;;;;6069513;23;20521;-84
2022/10/22 08:41:18;;;;;;;1.20;1.10;;;14.90;99.90;;;;;;6069212;23;20438;-84
2022/10/22 08:44:12;;;;;;;0.80;0.80;;;15.00;99.90;;;;;;6123346;23;20418;-84
2022/10/22 08:50:26;;;;;;;1.00;1.00;;;15.00;99.90;;;;;;6037045;23;20992;-87
2022/10/22 08:52:58;;;;;;;0.90;0.90;;;15.20;99.90;;;;;;6037561;23;20379;-86
2022/10/22 08:55:26;;;;;;;1.17;1.07;;;15.20;99.90;;;;;;6131186;23;20505;-87
2022/10/22 08:58:00;;;;;;;1.00;0.90;;;15.30;99.90;;;;;;6155316;23;20506;-87
2022/10/22 09:00:35;;;;;;;2.33;1.33;;;15.30;99.90;;;;;;6156017;23;20465;-87
2022/10/22 09:03:21;;;;;;;1.40;1.30;;;15.40;99.90;;;;;;6156361;23;20431;-87
2022/10/22 09:06:00;;;;;;;1.07;1.07;;;15.50;99.90;;;;;;6155865;23;20380;-87
2022/10/22 09:08:27;;;;;;;1.03;0.93;;;15.60;99.90;;;;;;6155932;23;20444;-87
2022/10/22 09:11:01;;;;;;;1.03;1.00;;;15.60;99.90;;;;;;6156378;23;20514;-87
2022/10/22 09:13:29;;;;;;;1.00;1.00;;;15.70;99.90;;;;;;6161564;23;20433;-85
2022/10/22 09:16:00;;;;;;;1.70;1.20;;;15.90;99.90;;;;;;6180316;23;20426;-86
2022/10/22 09:18:36;;;;;;;1.50;1.13;;;15.90;99.90;;;;;;6177520;23;20442;-87
2022/10/22 09:21:15;;;;;;;1.20;1.20;;;16.00;99.90;;;;;;6156760;23;20435;-88
2022/10/22 09:23:59;;;;;;;1.10;0.93;;;16.10;99.90;;;;;;6156030;23;20404;-87
2022/10/22 09:26:26;;;;;;;1.47;1.00;;;16.30;99.90;;;;;;6156160;23;20487;-87
2022/10/22 09:28:53;;;;;;;1.27;1.17;;;16.30;99.90;;;;;;6156326;23;20703;-87
2022/10/22 09:31:20;;;;;;;1.50;1.27;;;16.30;99.90;;;;;;6155731;23;20460;-87
2022/10/22 09:33:50;;;;;;;1.10;0.80;;;16.30;99.90;;;;;;6156676;23;20419;-88
2022/10/22 09:36:21;;;;;;;1.57;0.90;;;16.50;99.90;;;;;;6155592;23;20419;-88
2022/10/22 09:38:53;;;;;;;1.27;1.23;;;16.60;99.90;;;;;;6156136;23;20479;-87
2022/10/22 09:41:23;;;;;;;1.53;0.97;;;16.70;99.90;;;;;;6155655;23;20430;-87
2022/10/22 09:43:51;;;;;;;1.17;1.03;;;16.80;99.90;;;;;;6155521;23;20415;-86
2022/10/22 09:46:23;;;;;;;1.20;1.10;;;16.80;99.90;;;;;;6155210;23;20504;-87
2022/10/22 09:48:55;;;;;;;0.90;0.90;;;17.00;99.90;;;;;;6157375;23;20393;-84
2022/10/22 09:51:35;;;;;;;1.57;1.03;;;17.00;99.90;;;;;;6156272;23;20446;-84
2022/10/22 09:54:15;;;;;;;1.73;1.10;;;17.00;99.90;;;;;;6156638;23;20484;-85
2022/10/22 09:56:42;;;;;;;0.73;0.60;;;17.10;99.90;;;;;;6156755;23;20398;-85
2022/10/22 09:59:14;;;;;;;1.23;0.87;;;17.20;99.90;;;;;;6154868;23;20448;-83
2022/10/22 10:01:43;;;;;;;1.23;0.90;;;17.30;99.90;;;;;;6158023;23;20425;-85
2022/10/22 10:04:20;;;;;;;1.53;1.53;;;17.40;99.90;;;;;;6154553;23;20503;-84
2022/10/22 10:06:55;;;;;;;2.17;2.07;;;17.50;99.90;;;;;;6155148;23;20402;-86
2022/10/22 10:09:24;;;;;;;1.77;1.20;;;17.70;99.90;;;;;;6154924;23;20392;-85
2022/10/22 10:12:00;;;;;;;2.40;1.00;;;17.70;99.90;;;;;;6154726;23;20920;-84
2022/10/22 10:14:38;;;;;;;0.83;0.83;;;17.80;99.90;;;;;;6154776;23;20421;-84
2022/10/22 10:17:23;;;;;;;1.03;0.50;;;18.00;99.90;;;;;;6155798;23;20410;-86
2022/10/22 10:19:59;;;;;;;0.90;0.90;;;18.00;99.90;;;;;;6154588;23;20473;-84
2022/10/22 10:22:44;;;;;;;1.73;1.00;;;18.10;99.90;;;;;;6153677;23;20405;-84
2022/10/22 10:25:37;;;;;;;1.97;1.10;;;18.00;99.90;;;;;;6153051;23;20400;-84
2022/10/22 10:28:23;;;;;;;1.47;1.37;;;18.10;99.90;;;;;;6152341;23;20409;-84
2022/10/22 11:42:38;;;;;;;1.70;1.17;;;22.80;99.80;;;;;;6158998;23;20461;-82
2022/10/22 11:45:27;;;;;;;1.07;0.80;;;23.10;99.60;;;;;;6162113;23;20728;-84
2022/10/22 11:48:05;;;;;;;1.90;0.90;;;23.60;99.90;;;;;;6140892;23;20816;-84
2022/10/22 11:50:46;;;;;;;0.73;0.70;;;23.70;99.20;;;;;;6132765;23;20728;-84
2022/10/22 11:53:19;;;;;;;0.67;0.67;;;23.90;99.70;;;;;;6131710;23;20451;-84
2022/10/22 11:55:48;;;;;;;2.43;1.30;;;24.40;97.30;;;;;;6130936;23;20439;-84
2022/10/22 11:58:37;;;;;;;1.30;0.70;;;24.80;96.60;;;;;;6130588;23;20440;-84
2022/10/22 12:01:23;;;;;;;1.73;1.00;;;25.10;96.80;;;;;;6127493;23;20520;-84
2022/10/22 12:03:51;;;;;;;2.20;0.87;;;25.80;97.60;;;;;;6127033;23;20477;-84
2022/10/22 12:06:23;;;;;;;1.50;0.90;;;25.90;93.00;;;;;;6127482;23;20417;-87
2022/10/22 12:08:59;;;;;;;1.10;1.00;;;25.50;93.80;;;;;;6130668;23;20440;-84
2022/10/22 12:11:28;;;;;;;3.10;0.93;;;24.90;92.40;;;;;;6146358;23;20471;-85
2022/10/22 12:14:19;;;;;;;2.20;0.93;;;24.40;93.90;;;;;;6136140;23;20444;-84
2022/10/22 12:16:51;;;;;;;2.30;1.30;;;24.10;96.50;;;;;;6116725;23;20498;-85
2022/10/22 12:19:24;;;;;;;1.47;0.97;;;24.50;95.50;;;;;;6124833;23;20392;-85
2022/10/22 12:21:54;;;;;;;2.93;1.00;;;25.30;94.50;;;;;;6126010;23;20798;-85
2022/10/22 12:24:24;;;;;;;2.23;1.00;;;26.00;93.60;;;;;;6126790;23;20395;-85
2022/10/22 12:26:51;;;;;;;1.37;0.73;;;26.50;94.90;;;;;;6126136;23;20438;-85
2022/10/22 12:29:24;;;;;;;1.80;1.10;;;26.70;86.70;;;;;;6126455;23;20483;-85
2022/10/22 12:31:51;;;;;;;1.20;1.03;;;26.30;87.20;;;;;;6128479;23;20433;-85
2022/10/22 12:34:37;;;;;;;1.80;0.80;;;26.00;83.80;;;;;;6127691;23;20413;-89
2022/10/22 12:37:05;;;;;;;1.33;0.70;;;25.40;86.60;;;;;;6127028;23;20830;-89
2022/10/22 12:39:34;;;;;;;1.20;0.70;;;24.80;90.50;;;;;;6130862;23;20404;-85
2022/10/22 12:42:01;;;;;;;1.33;1.00;;;24.10;90.00;;;;;;6128002;23;20911;-86
2022/10/22 12:44:32;;;;;;;1.70;1.00;;;23.90;90.20;;;;;;6126862;23;20416;-89
2022/10/22 12:47:04;;;;;;;0.60;0.60;;;23.80;93.30;;;;;;6126226;23;20416;-89
2022/10/22 12:49:36;;;;;;;2.10;0.77;;;23.60;94.50;;;;;;6126116;23;20848;-88
2022/10/22 12:52:15;;;;;;;1.63;1.17;;;24.00;96.20;;;;;;6126263;23;20763;-88
2022/10/22 12:54:53;;;;;;;2.40;0.80;;;24.90;94.10;;;;;;6126563;23;20384;-89
2022/10/22 12:57:23;;;;;;;0.90;0.87;;;25.80;94.80;;;;;;6126564;23;20439;-89
2022/10/22 12:59:55;;;;;;;2.10;0.67;;;26.40;91.00;;;;;;6126036;23;20885;-89
2022/10/22 13:02:24;;;;;;;2.73;0.97;;;26.90;88.40;;;;;;6126535;23;20890;-89
2022/10/22 13:05:20;;;;;;;1.57;0.80;;;27.40;89.50;;;;;;6126717;23;20719;-89
2022/10/22 13:07:50;;;;;;;1.30;1.07;;;28.00;83.20;;;;;;6146376;23;20440;-89
2022/10/22 13:10:24;;;;;;;2.63;2.00;;;28.30;77.50;;;;;;6128708;23;20402;-89
2022/10/22 13:12:58;;;;;;;1.20;1.00;;;28.00;76.70;;;;;;6126113;23;20798;-89
2022/10/22 13:15:56;;;;;;;3.37;0.80;;;27.50;76.30;;;;;;6125912;23;20401;-89
2022/10/22 13:18:27;;;;;;;1.27;1.20;;;27.00;78.60;;;;;;6126096;23;20413;-89
2022/10/22 13:20:56;;;;;;;2.60;1.20;;;26.50;79.80;;;;;;6126235;23;20527;-89
2022/10/22 13:23:26;;;;;;;1.83;1.10;;;26.20;80.30;;;;;;6126566;23;20392;-88
2022/10/22 13:25:59;;;;;;;1.37;1.10;;;26.30;81.30;;;;;;6126534;23;20406;-88
2022/10/22 13:28:31;;;;;;;1.83;0.93;;;26.40;82.00;;;;;;6125975;23;20541;-89
2022/10/22 13:31:21;;;;;;;1.50;1.20;;;26.20;83.50;;;;;;6126465;23;20772;-88
2022/10/22 13:34:05;;;;;;;1.20;1.00;;;25.80;83.10;;;;;;6126613;23;20472;-88
2022/10/22 13:36:38;;;;;;;2.20;1.63;;;25.40;83.30;;;;;;6126151;23;20863;-88
2022/10/22 13:39:19;;;;;;;1.67;1.07;;;24.80;84.10;;;;;;6125844;23;20479;-89
2022/10/22 13:41:52;;;;;;;2.47;1.37;;;24.40;86.10;;;;;;6125716;23;20434;-89
2022/10/22 13:44:24;;;;;;;1.60;1.50;;;24.10;88.50;;;;;;6126328;23;20686;-88
2022/10/22 13:47:11;;;;;;;1.40;1.30;;;24.00;89.70;;;;;;6125987;23;20440;-88
2022/10/22 13:49:43;;;;;;;2.03;0.97;;;24.10;90.70;;;;;;6125246;23;20522;-88
2022/10/22 13:52:16;;;;;;;1.13;0.80;;;24.80;92.50;;;;;;6125664;23;20436;-89
2022/10/22 13:54:43;;;;;;;0.70;0.70;;;25.90;89.10;;;;;;6126002;23;20898;-88
2022/10/22 13:57:20;;;;;;;1.50;0.97;;;26.90;79.20;;;;;;6126203;23;20448;-89
2022/10/22 13:59:50;;;;;;;1.00;0.70;;;27.30;76.60;;;;;;6125735;23;20409;-89
2022/10/22 14:02:23;;;;;;;0.83;0.83;;;27.30;73.60;;;;;;6126288;23;20428;-89
2022/10/22 14:04:53;;;;;;;3.03;1.43;;;27.50;73.90;;;;;;6125704;23;20840;-89
2022/10/22 14:07:21;;;;;;;0.87;0.80;;;28.20;77.40;;;;;;6125585;23;20441;-89
2022/10/22 14:09:54;;;;;;;1.90;1.27;;;29.00;74.10;;;;;;6125614;23;20436;-88
2022/10/22 14:12:32;;;;;;;1.40;1.17;;;29.90;75.50;;;;;;6126233;23;20493;-89
2022/10/22 14:15:02;;;;;;;1.30;1.10;;;30.70;71.10;;;;;;6125497;23;20419;-89
2022/10/22 14:17:41;;;;;;;1.10;0.90;;;31.20;68.30;;;;;;6125492;23;20776;-89
2022/10/22 14:20:17;;;;;;;1.50;1.30;;;31.50;64.00;;;;;;6125846;23;20446;-89
2022/10/22 14:22:48;;;;;;;1.67;0.90;;;31.60;60.90;;;;;;6125900;23;20781;-89
2022/10/22 14:25:24;;;;;;;1.43;1.10;;;31.80;59.90;;;;;;6125538;23;20454;-89
2022/10/22 14:27:53;;;;;;;2.03;0.97;;;31.20;57.10;;;;;;6125675;23;20927;-89
2022/10/22 14:30:29;;;;;;;1.73;1.20;;;30.90;59.10;;;;;;6125757;23;20442;-89
2022/10/22 14:33:18;;;;;;;0.80;0.80;;;30.00;58.80;;;;;;6136084;23;20428;-89
2022/10/22 14:35:48;;;;;;;0.80;0.80;;;29.30;59.60;;;;;;6125756;23;20416;-89
2022/10/22 14:38:22;;;;;;;3.23;1.07;;;28.60;59.80;;;;;;6125321;23;20814;-89
2022/10/22 14:40:51;;;;;;;1.90;0.90;;;28.40;62.20;;;;;;6125511;23;20414;-89